Lake Bridgeport, Texas
Current Conditions -  °F | °C
As of 8:35 PM on Wednesday 22 Oct 2014 (Local Time) from KXBP Reporting Station
Scattered Clouds Scattered Clouds  
Wind Chill: 71°   Ceiling: Unl
Heat Index: 71°   Visibility: 10mi
Dew Point: 61°   Wind: 3mph
Humidity: 70%   Direction: 130°SE
Pressure: 30.11"   Gusts: NA
Location:  33.1691°N, 97.8246°W
Report Text: KXBP 230135Z AUTO 13003KT 10SM SCT120 22/16 A3011 RMK AO2 T02170160
Loading
Personal Weather Stations






























Interactive Weather Map New forecast layout! Learn more

10-Day Weather Forecast

Advertisements
Track Severe Weather on mobile